createdAt,value
2023-04-09T00:01:12.665Z,31.40
2023-04-09T00:03:41.221Z,34.80
2023-04-09T00:06:12.314Z,33.60
2023-04-09T00:09:15.701Z,30.40
2023-04-09T00:11:43.810Z,33.40
2023-04-09T00:14:11.975Z,34.80
2023-04-09T00:16:40.677Z,34.10
2023-04-09T00:19:08.712Z,33.20
2023-04-09T00:21:39.211Z,34.90
2023-04-09T00:24:07.999Z,31.10
2023-04-09T00:26:36.547Z,33.40
2023-04-09T00:29:07.932Z,34.40
2023-04-09T00:31:36.289Z,33.00
2023-04-09T00:34:07.469Z,38.70
2023-04-09T00:36:35.408Z,40.50
2023-04-09T00:39:09.250Z,35.30
2023-04-09T00:41:39.901Z,38.00
2023-04-09T00:44:07.963Z,35.30
2023-04-09T00:46:38.705Z,36.70
2023-04-09T00:49:06.847Z,36.70
2023-04-09T00:51:36.932Z,34.50
2023-04-09T00:54:05.649Z,38.00
2023-04-09T00:56:34.691Z,35.20
2023-04-09T00:59:05.969Z,38.80
2023-04-09T01:01:34.260Z,37.20
2023-04-09T01:04:02.578Z,34.50
2023-04-09T01:06:43.999Z,35.20
2023-04-09T01:09:22.845Z,33.20
2023-04-09T01:12:12.090Z,39.00
2023-04-09T01:14:57.492Z,37.30
2023-04-09T01:17:38.274Z,33.90
2023-04-09T01:20:15.491Z,37.10
2023-04-09T01:23:37.014Z,37.90
2023-04-09T01:26:19.355Z,37.70
2023-04-09T01:29:00.465Z,36.10
2023-04-09T01:31:34.626Z,39.50
2023-04-09T01:34:12.889Z,36.80
2023-04-09T01:36:45.878Z,43.60
2023-04-09T01:39:33.183Z,39.50
2023-04-09T01:42:11.013Z,35.50
2023-04-09T01:44:42.787Z,41.70
2023-04-09T01:47:11.504Z,37.50
2023-04-09T01:49:45.234Z,38.70
2023-04-09T01:52:13.936Z,40.10
2023-04-09T01:54:43.208Z,40.40
2023-04-09T01:57:11.390Z,40.20
2023-04-09T01:59:39.865Z,39.00
2023-04-09T02:02:24.759Z,44.00
2023-04-09T02:04:54.368Z,40.30
2023-04-09T02:07:39.335Z,45.00
2023-04-09T02:10:13.434Z,41.80
2023-04-09T02:12:49.418Z,40.60
2023-04-09T02:15:19.340Z,40.10
2023-04-09T02:17:47.771Z,41.10
2023-04-09T02:20:19.638Z,39.80
2023-04-09T02:22:48.435Z,38.20
2023-04-09T02:25:16.303Z,42.90
2023-04-09T02:27:44.189Z,34.00
2023-04-09T02:30:12.200Z,38.50
2023-04-09T02:32:40.415Z,38.70
2023-04-09T02:35:08.918Z,40.40
2023-04-09T02:37:36.876Z,37.70
2023-04-09T02:40:05.323Z,39.00
2023-04-09T02:42:33.220Z,39.70
2023-04-09T02:45:04.414Z,42.70
2023-04-09T02:47:36.261Z,42.20
2023-04-09T02:50:05.244Z,41.90
2023-04-09T02:52:35.731Z,42.10
2023-04-09T02:55:07.256Z,40.60
2023-04-09T02:57:37.303Z,40.80
2023-04-09T03:00:05.987Z,38.80
2023-04-09T03:02:43.701Z,41.20
2023-04-09T03:05:12.261Z,40.30
2023-04-09T03:07:40.468Z,42.40
2023-04-09T03:10:11.906Z,43.00
2023-04-09T03:12:55.291Z,46.30
2023-04-09T03:15:23.940Z,41.90
2023-04-09T03:17:52.285Z,42.90
2023-04-09T03:20:34.996Z,41.40
2023-04-09T03:23:03.744Z,44.20
2023-04-09T03:25:36.837Z,41.90
2023-04-09T03:28:12.636Z,41.30
2023-04-09T03:30:43.488Z,47.00
2023-04-09T03:33:11.602Z,43.90
2023-04-09T03:35:52.542Z,41.10
2023-04-09T03:38:28.206Z,43.30
2023-04-09T03:40:57.146Z,43.30
2023-04-09T03:43:28.268Z,40.70
2023-04-09T03:45:56.441Z,40.60
2023-04-09T03:48:27.030Z,42.10
2023-04-09T03:51:04.691Z,45.40
2023-04-09T03:53:37.853Z,44.00
2023-04-09T03:56:07.973Z,43.80
2023-04-09T03:58:39.665Z,45.10
2023-04-09T04:01:08.545Z,42.70
2023-04-09T04:03:43.644Z,40.40
2023-04-09T04:06:38.331Z,41.00
2023-04-09T04:09:35.601Z,40.80
2023-04-09T04:12:07.492Z,39.40
2023-04-09T04:14:51.046Z,39.90
2023-04-09T04:17:31.711Z,37.00
2023-04-09T04:20:01.509Z,40.30
2023-04-09T04:22:33.253Z,42.90
2023-04-09T04:25:03.840Z,41.40
2023-04-09T04:27:31.938Z,44.00
2023-04-09T04:30:02.122Z,39.80
2023-04-09T04:32:51.117Z,41.30
2023-04-09T04:35:21.836Z,44.20
2023-04-09T04:37:53.325Z,44.80
2023-04-09T04:43:00.518Z,45.20
2023-04-09T04:45:35.076Z,47.10
2023-04-09T04:48:09.482Z,45.30
2023-04-09T04:50:38.332Z,42.80
2023-04-09T04:53:10.069Z,46.40
2023-04-09T04:55:46.267Z,46.10
2023-04-09T04:58:16.607Z,42.10
2023-04-09T05:00:49.271Z,46.70
2023-04-09T05:03:18.158Z,47.90
2023-04-09T05:06:06.076Z,48.80
2023-04-09T05:08:45.086Z,42.30
2023-04-09T05:11:15.117Z,43.20
2023-04-09T05:13:43.515Z,44.50
2023-04-09T05:16:21.085Z,44.90
2023-04-09T05:18:55.233Z,44.50
2023-04-09T05:21:27.649Z,44.40
2023-04-09T05:23:57.734Z,45.20
2023-04-09T05:26:27.418Z,45.20
2023-04-09T05:28:58.696Z,48.00
2023-04-09T05:31:27.227Z,44.00
2023-04-09T05:34:16.501Z,48.70
2023-04-09T05:36:47.932Z,44.40
2023-04-09T05:39:18.984Z,43.50
2023-04-09T05:41:56.836Z,44.80
2023-04-09T05:44:27.765Z,41.20
2023-04-09T05:47:18.973Z,41.50
2023-04-09T05:49:59.767Z,41.70
2023-04-09T05:52:28.810Z,43.00
2023-04-09T05:55:06.796Z,43.70
2023-04-09T05:57:48.085Z,42.70
2023-04-09T06:00:25.757Z,44.00
2023-04-09T06:02:53.799Z,39.70
2023-04-09T06:05:22.180Z,44.20
2023-04-09T06:07:50.681Z,42.80
2023-04-09T06:10:18.746Z,41.60
2023-04-09T06:12:48.524Z,43.10
2023-04-09T06:15:19.963Z,36.80
2023-04-09T06:17:48.379Z,41.80
2023-04-09T06:20:17.308Z,39.50
2023-04-09T06:22:48.379Z,42.70
2023-04-09T06:25:17.157Z,46.00
2023-04-09T06:27:45.222Z,42.00
2023-04-09T06:30:35.876Z,42.10
2023-04-09T06:33:03.788Z,44.00
2023-04-09T06:35:37.101Z,39.80
2023-04-09T06:38:05.371Z,41.30
2023-04-09T06:40:33.580Z,45.70
2023-04-09T06:43:01.970Z,42.70
2023-04-09T06:45:39.113Z,41.40
2023-04-09T06:48:09.265Z,44.70
2023-04-09T06:50:46.864Z,40.60
2023-04-09T06:53:15.673Z,40.40
2023-04-09T06:55:46.615Z,46.40
2023-04-09T06:58:14.456Z,40.60
2023-04-09T07:00:42.781Z,38.40
2023-04-09T07:03:11.488Z,41.20
2023-04-09T07:05:39.682Z,43.60
2023-04-09T07:08:08.032Z,40.40
2023-04-09T07:10:38.451Z,42.40
2023-04-09T07:13:06.759Z,41.20
2023-04-09T07:15:34.976Z,41.80
2023-04-09T07:18:03.316Z,40.10
2023-04-09T07:20:34.345Z,43.10
2023-04-09T07:23:02.576Z,38.40
2023-04-09T07:25:33.211Z,42.40
2023-04-09T07:28:44.353Z,40.90
2023-04-09T07:33:55.441Z,37.50
2023-04-09T07:36:26.686Z,36.50
2023-04-09T07:38:57.747Z,39.00
2023-04-09T07:41:25.991Z,40.70
2023-04-09T07:43:54.051Z,45.20
2023-04-09T07:46:22.357Z,36.40
2023-04-09T07:48:51.081Z,39.90
2023-04-09T07:51:22.266Z,42.10
2023-04-09T07:53:50.679Z,39.40
2023-04-09T07:56:22.427Z,39.60
2023-04-09T07:58:51.421Z,38.70
2023-04-09T13:02:36.657Z,39.50
2023-04-09T13:05:05.546Z,41.60
2023-04-09T13:07:33.476Z,39.50
2023-04-09T13:10:01.689Z,43.00
2023-04-09T13:12:30.243Z,38.70
2023-04-09T13:14:59.239Z,42.60
2023-04-09T13:17:27.439Z,41.10
2023-04-09T13:19:55.630Z,43.80
2023-04-09T13:22:23.684Z,39.70
2023-04-09T13:24:51.531Z,42.50
2023-04-09T13:27:19.402Z,39.50
2023-04-09T13:29:47.380Z,41.40
2023-04-09T13:32:15.604Z,38.60
2023-04-09T13:34:43.526Z,42.60
2023-04-09T13:37:11.777Z,37.70
2023-04-09T13:39:39.784Z,39.40
2023-04-09T13:42:13.736Z,41.60
2023-04-09T13:44:45.098Z,40.60
2023-04-09T13:47:13.645Z,38.10
2023-04-09T13:49:42.429Z,36.30
2023-04-09T13:52:10.863Z,38.00
2023-04-09T13:54:38.776Z,38.10
2023-04-09T13:57:06.953Z,38.40
2023-04-09T13:59:34.866Z,35.90
2023-04-09T14:02:02.957Z,37.10
2023-04-09T14:04:34.719Z,36.70
2023-04-09T14:07:02.625Z,35.40
2023-04-09T14:09:30.669Z,37.80
2023-04-09T14:11:58.702Z,40.10
2023-04-09T14:14:26.633Z,40.10
2023-04-09T14:16:55.560Z,36.40
2023-04-09T14:19:24.270Z,41.00
2023-04-09T14:21:53.362Z,40.60
2023-04-09T14:24:23.194Z,36.30
2023-04-09T14:26:53.489Z,37.90
2023-04-09T14:29:22.175Z,39.90
2023-04-09T14:31:50.731Z,36.90
2023-04-09T14:34:18.703Z,35.50
2023-04-09T14:36:47.193Z,36.20
2023-04-09T14:39:15.954Z,33.50
2023-04-09T14:41:43.873Z,32.50
2023-04-09T14:44:14.680Z,30.90
2023-04-09T14:46:43.443Z,33.10
2023-04-09T14:49:11.382Z,35.30
2023-04-09T14:51:39.509Z,36.00
2023-04-09T14:54:07.391Z,36.20
2023-04-09T14:56:35.415Z,33.30
2023-04-09T14:59:06.225Z,37.10
2023-04-09T15:01:34.309Z,34.80
2023-04-09T15:04:02.730Z,33.40
2023-04-09T15:06:32.348Z,32.00
2023-04-09T15:09:00.738Z,37.60
2023-04-09T15:11:29.545Z,32.70
2023-04-09T15:13:58.073Z,38.00
2023-04-09T15:16:27.687Z,33.10
2023-04-09T15:18:57.811Z,36.10
2023-04-09T15:21:27.181Z,35.40
2023-04-09T15:23:56.319Z,31.20
2023-04-09T15:26:24.501Z,32.80
2023-04-09T15:28:53.709Z,35.00
2023-04-09T15:31:21.801Z,33.20
2023-04-09T15:33:50.419Z,34.10
2023-04-09T15:36:18.399Z,35.50
2023-04-09T15:38:46.471Z,35.80
2023-04-09T15:41:16.922Z,36.90
2023-04-09T15:43:44.788Z,36.90
2023-04-09T15:46:12.872Z,39.10
2023-04-09T15:48:41.728Z,37.10
2023-04-09T15:51:10.176Z,34.80
2023-04-09T15:53:38.058Z,35.60
2023-04-09T15:56:06.538Z,36.80
2023-04-09T15:58:36.234Z,36.80
2023-04-09T16:01:11.056Z,36.70
2023-04-09T16:03:41.891Z,36.10
2023-04-09T16:06:13.508Z,34.20
2023-04-09T16:08:41.759Z,36.90
2023-04-09T16:11:10.602Z,34.70
2023-04-09T16:13:38.477Z,32.80
2023-04-09T16:16:07.473Z,38.00
2023-04-09T16:18:36.015Z,44.70
2023-04-09T16:21:04.348Z,40.50
2023-04-09T16:23:33.064Z,39.80
2023-04-09T16:26:01.229Z,39.60
2023-04-09T16:28:29.053Z,35.60
2023-04-09T16:30:59.264Z,37.40
2023-04-09T16:33:27.626Z,36.90
2023-04-09T16:35:55.690Z,35.20
2023-04-09T16:38:24.774Z,34.60
2023-04-09T16:40:55.118Z,32.70
2023-04-09T16:43:22.959Z,34.10
2023-04-09T16:45:52.329Z,32.70
2023-04-09T16:48:20.997Z,30.70
2023-04-09T16:50:49.283Z,32.80
2023-04-09T16:53:17.183Z,34.10
2023-04-09T16:55:45.177Z,35.20
2023-04-09T16:58:13.385Z,34.90
2023-04-09T17:00:42.116Z,33.20
2023-04-09T17:03:12.617Z,37.70
2023-04-09T17:05:40.483Z,36.30
2023-04-09T17:08:08.479Z,35.30
2023-04-09T17:10:37.114Z,33.80
2023-04-09T17:13:14.910Z,33.30
2023-04-09T17:15:43.829Z,36.80
2023-04-09T17:18:12.244Z,34.80
2023-04-09T17:20:40.740Z,37.20
2023-04-09T17:23:08.989Z,33.20
2023-04-09T17:25:37.044Z,30.90
2023-04-09T17:28:05.028Z,35.20
2023-04-09T17:30:33.399Z,34.20
2023-04-09T17:33:01.838Z,41.10
2023-04-09T17:35:30.259Z,42.20
2023-04-09T17:37:58.892Z,39.70
2023-04-09T17:40:28.263Z,38.50
2023-04-09T17:42:56.510Z,37.30
2023-04-09T17:45:25.427Z,36.20
2023-04-09T17:47:53.499Z,38.80
2023-04-09T17:53:03.831Z,39.30
2023-04-09T17:55:32.369Z,41.00
2023-04-09T17:58:00.511Z,41.90
2023-04-09T18:00:28.522Z,39.30
2023-04-09T18:02:57.643Z,42.10
2023-04-09T18:05:27.653Z,41.50
2023-04-09T18:07:56.876Z,38.30
2023-04-09T18:10:25.402Z,35.20
2023-04-09T18:12:53.610Z,42.90
2023-04-09T18:15:22.645Z,34.70
2023-04-09T18:17:51.567Z,38.30
2023-04-09T18:20:19.599Z,37.20
2023-04-09T18:22:47.574Z,39.20
2023-04-09T18:25:15.879Z,42.30
2023-04-09T18:27:46.774Z,39.30
2023-04-09T18:30:14.683Z,36.60
2023-04-09T18:32:43.491Z,38.20
2023-04-09T18:35:12.224Z,34.40
2023-04-09T18:37:40.568Z,33.90
2023-04-09T18:40:15.500Z,33.30
2023-04-09T18:42:46.530Z,35.80
2023-04-09T18:45:16.686Z,37.40
2023-04-09T18:47:45.364Z,34.70
2023-04-09T18:50:18.213Z,36.90
2023-04-09T18:52:46.244Z,37.60
2023-04-09T18:55:14.810Z,38.40
2023-04-09T18:57:44.239Z,38.20
2023-04-09T19:00:12.986Z,36.90
2023-04-09T19:02:41.118Z,45.00
2023-04-09T19:05:09.661Z,44.90
2023-04-09T19:07:37.972Z,43.50
2023-04-09T19:10:06.604Z,41.40
2023-04-09T19:12:34.537Z,50.20
2023-04-09T19:15:07.032Z,40.80
2023-04-09T19:17:35.039Z,45.30
2023-04-09T19:20:04.430Z,50.70
2023-04-09T19:22:32.933Z,48.00
2023-04-09T19:25:00.903Z,50.50
2023-04-09T19:27:28.974Z,49.10
2023-04-09T19:29:58.855Z,49.80
2023-04-09T19:32:27.278Z,51.50
2023-04-09T19:34:58.696Z,50.60
2023-04-09T19:37:28.853Z,52.00
2023-04-09T19:39:58.158Z,52.10
2023-04-09T19:42:28.754Z,56.70
2023-04-09T19:44:57.342Z,50.90
2023-04-09T19:47:27.407Z,46.00
2023-04-09T19:49:55.589Z,46.80
2023-04-09T19:52:23.793Z,46.10
2023-04-09T19:54:56.420Z,43.00
2023-04-09T19:57:26.561Z,43.30
2023-04-09T19:59:55.265Z,38.50
2023-04-09T20:02:24.101Z,37.50
2023-04-09T20:04:52.571Z,37.30
2023-04-09T20:07:20.897Z,42.80
2023-04-09T20:09:49.718Z,40.00
2023-04-09T20:12:17.724Z,44.60
2023-04-09T20:14:46.645Z,42.30
2023-04-09T20:17:14.553Z,44.40
2023-04-09T20:19:42.471Z,42.10
2023-04-09T20:22:10.496Z,42.20
2023-04-09T20:24:38.512Z,40.80
2023-04-09T20:27:06.530Z,43.30
2023-04-09T20:29:34.722Z,44.30
2023-04-09T20:32:03.609Z,42.70
2023-04-09T20:34:32.602Z,44.60
2023-04-09T20:37:00.539Z,45.20
2023-04-09T20:39:30.476Z,45.20
2023-04-09T20:41:58.702Z,44.30
2023-04-09T20:44:29.023Z,49.40
2023-04-09T20:46:57.039Z,46.70
2023-04-09T20:49:29.802Z,43.00
2023-04-09T20:51:58.393Z,43.50
2023-04-09T20:54:29.866Z,39.70
2023-04-09T20:56:57.952Z,44.50
2023-04-09T20:59:26.429Z,38.10
2023-04-09T21:01:57.612Z,38.40
2023-04-09T21:04:26.121Z,47.20
2023-04-09T21:06:54.517Z,55.80
2023-04-09T21:09:22.448Z,59.20
2023-04-09T21:11:50.536Z,51.80
2023-04-09T21:14:18.442Z,45.00
2023-04-09T21:16:46.488Z,44.30
2023-04-09T21:19:14.567Z,47.20
2023-04-09T21:21:42.626Z,49.50
2023-04-09T21:24:10.511Z,49.00
2023-04-09T21:26:49.533Z,50.50
2023-04-09T21:29:21.258Z,53.70
2023-04-09T21:31:49.973Z,57.00
2023-04-09T21:34:17.848Z,57.70
2023-04-09T21:36:46.281Z,50.30
2023-04-09T21:39:14.433Z,50.50
2023-04-09T21:41:42.457Z,51.70
2023-04-09T21:44:10.529Z,48.20
2023-04-09T21:46:40.701Z,47.20
2023-04-09T21:49:08.927Z,41.50
2023-04-09T21:51:37.506Z,40.40
2023-04-09T21:54:07.104Z,39.20
2023-04-09T21:56:35.969Z,38.20
2023-04-09T21:59:04.043Z,36.00
2023-04-09T22:01:33.609Z,34.70
2023-04-09T22:04:02.097Z,31.00
2023-04-09T22:06:31.287Z,34.10
2023-04-09T22:09:00.043Z,36.50
2023-04-09T22:11:28.647Z,38.20
2023-04-09T22:13:57.533Z,36.70
2023-04-09T22:16:26.401Z,35.20
2023-04-09T22:18:54.797Z,34.90
2023-04-09T22:21:23.202Z,35.10
2023-04-09T22:23:51.529Z,35.60
2023-04-09T22:26:19.999Z,35.10
2023-04-09T22:28:48.067Z,29.90
2023-04-09T22:31:16.902Z,35.50
2023-04-09T22:33:44.799Z,34.20
2023-04-09T22:36:12.800Z,35.00
2023-04-09T22:38:40.695Z,37.30
2023-04-09T22:41:08.563Z,35.50
2023-04-09T22:43:37.222Z,33.00
2023-04-09T22:46:06.039Z,37.40
2023-04-09T22:48:40.829Z,38.50
2023-04-09T22:51:13.749Z,37.40
2023-04-09T22:53:42.014Z,39.50
2023-04-09T22:56:10.070Z,32.70
2023-04-09T22:58:38.476Z,41.10
2023-04-09T23:01:06.901Z,43.10
2023-04-09T23:03:35.012Z,46.20
2023-04-09T23:06:03.126Z,45.60
2023-04-09T23:08:31.313Z,44.90
2023-04-09T23:10:59.168Z,53.90
2023-04-09T23:13:27.173Z,54.00
2023-04-09T23:15:55.139Z,48.20
2023-04-09T23:18:23.064Z,40.60
2023-04-09T23:20:51.236Z,42.70
2023-04-09T23:23:19.284Z,45.30
2023-04-09T23:25:47.109Z,42.10
2023-04-09T23:28:15.041Z,36.40
2023-04-09T23:30:43.988Z,37.00
2023-04-09T23:33:11.851Z,36.20
2023-04-09T23:35:39.955Z,37.30
2023-04-09T23:38:08.067Z,47.70
2023-04-09T23:40:36.000Z,39.80
2023-04-09T23:43:04.673Z,42.30
2023-04-09T23:45:32.520Z,38.80
2023-04-09T23:48:00.911Z,40.30
2023-04-09T23:50:29.069Z,40.80
2023-04-09T23:53:03.406Z,39.50
2023-04-09T23:55:33.552Z,40.20
2023-04-09T23:58:01.651Z,39.10
